sensor_id;sensor_type;location;lat;lon;timestamp;temperature;humidity
20345;DHT22;10330;48.816;9.278;2023-03-01T00:01:07;0.60;99.90
20345;DHT22;10330;48.816;9.278;2023-03-01T00:03:34;0.60;99.90
20345;DHT22;10330;48.816;9.278;2023-03-01T00:06:01;0.60;99.90
20345;DHT22;10330;48.816;9.278;2023-03-01T00:08:28;0.50;99.90
20345;DHT22;10330;48.816;9.278;2023-03-01T00:13:32;0.60;99.90
20345;DHT22;10330;48.816;9.278;2023-03-01T00:15:58;0.60;99.90
20345;DHT22;10330;48.816;9.278;2023-03-01T00:18:24;0.60;99.90
20345;DHT22;10330;48.816;9.278;2023-03-01T00:20:55;0.50;99.90
20345;DHT22;10330;48.816;9.278;2023-03-01T00:23:22;0.50;99.90
20345;DHT22;10330;48.816;9.278;2023-03-01T00:25:48;0.50;99.90
20345;DHT22;10330;48.816;9.278;2023-03-01T00:28:15;0.50;99.90
20345;DHT22;10330;48.816;9.278;2023-03-01T00:30:41;0.50;99.90
20345;DHT22;10330;48.816;9.278;2023-03-01T00:33:08;0.50;99.90
20345;DHT22;10330;48.816;9.278;2023-03-01T00:35:34;0.50;99.90
20345;DHT22;10330;48.816;9.278;2023-03-01T00:38:00;0.50;99.90
20345;DHT22;10330;48.816;9.278;2023-03-01T00:40:28;0.50;99.90
20345;DHT22;10330;48.816;9.278;2023-03-01T00:42:54;0.40;99.90
20345;DHT22;10330;48.816;9.278;2023-03-01T00:45:21;0.40;99.90
20345;DHT22;10330;48.816;9.278;2023-03-01T00:47:49;0.40;99.90
20345;DHT22;10330;48.816;9.278;2023-03-01T00:50:16;0.40;99.90
20345;DHT22;10330;48.816;9.278;2023-03-01T00:52:42;0.50;99.90
20345;DHT22;10330;48.816;9.278;2023-03-01T00:55:09;0.40;99.90
20345;DHT22;10330;48.816;9.278;2023-03-01T00:57:35;0.40;99.90
20345;DHT22;10330;48.816;9.278;2023-03-01T01:00:02;0.40;99.90
20345;DHT22;10330;48.816;9.278;2023-03-01T01:02:32;0.40;99.90
20345;DHT22;10330;48.816;9.278;2023-03-01T01:04:58;0.30;99.90
20345;DHT22;10330;48.816;9.278;2023-03-01T01:07:24;0.30;99.90
20345;DHT22;10330;48.816;9.278;2023-03-01T01:09:51;0.30;99.90
20345;DHT22;10330;48.816;9.278;2023-03-01T01:12:17;0.30;99.90
20345;DHT22;10330;48.816;9.278;2023-03-01T01:14:43;0.20;99.90
20345;DHT22;10330;48.816;9.278;2023-03-01T01:17:09;0.20;99.90
20345;DHT22;10330;48.816;9.278;2023-03-01T01:19:36;0.20;99.90
20345;DHT22;10330;48.816;9.278;2023-03-01T01:22:03;0.20;99.90
20345;DHT22;10330;48.816;9.278;2023-03-01T01:24:29;0.10;99.90
20345;DHT22;10330;48.816;9.278;2023-03-01T01:26:56;0.00;99.90
20345;DHT22;10330;48.816;9.278;2023-03-01T01:29:22;0.00;99.90
20345;DHT22;10330;48.816;9.278;2023-03-01T01:31:49;0.00;99.90
20345;DHT22;10330;48.816;9.278;2023-03-01T01:34:20;0.00;99.90
20345;DHT22;10330;48.816;9.278;2023-03-01T01:36:52;0.00;99.90
20345;DHT22;10330;48.816;9.278;2023-03-01T01:39:21;0.00;99.90
20345;DHT22;10330;48.816;9.278;2023-03-01T01:41:48;-0.10;99.90
20345;DHT22;10330;48.816;9.278;2023-03-01T01:44:20;-0.10;99.90
20345;DHT22;10330;48.816;9.278;2023-03-01T01:47:00;-0.10;99.90
20345;DHT22;10330;48.816;9.278;2023-03-01T01:52:07;0.00;99.90
20345;DHT22;10330;48.816;9.278;2023-03-01T01:57:18;0.00;99.90
20345;DHT22;10330;48.816;9.278;2023-03-01T01:59:49;0.10;99.90
20345;DHT22;10330;48.816;9.278;2023-03-01T02:02:18;0.10;99.90
20345;DHT22;10330;48.816;9.278;2023-03-01T02:04:47;0.20;99.90
20345;DHT22;10330;48.816;9.278;2023-03-01T02:07:22;0.30;99.90
20345;DHT22;10330;48.816;9.278;2023-03-01T02:09:51;0.30;99.90
20345;DHT22;10330;48.816;9.278;2023-03-01T02:12:21;0.30;99.90
20345;DHT22;10330;48.816;9.278;2023-03-01T02:14:49;0.40;99.90
20345;DHT22;10330;48.816;9.278;2023-03-01T02:17:16;0.40;99.90
20345;DHT22;10330;48.816;9.278;2023-03-01T02:22:22;0.60;99.90
20345;DHT22;10330;48.816;9.278;2023-03-01T02:30:39;0.60;99.90
20345;DHT22;10330;48.816;9.278;2023-03-01T02:33:26;0.60;99.90
20345;DHT22;10330;48.816;9.278;2023-03-01T02:35:54;0.60;99.90
20345;DHT22;10330;48.816;9.278;2023-03-01T02:38:21;0.60;99.90
20345;DHT22;10330;48.816;9.278;2023-03-01T02:40:50;0.60;99.90
20345;DHT22;10330;48.816;9.278;2023-03-01T02:43:18;0.50;99.90
20345;DHT22;10330;48.816;9.278;2023-03-01T02:45:52;0.50;99.90
20345;DHT22;10330;48.816;9.278;2023-03-01T02:48:19;0.60;99.90
20345;DHT22;10330;48.816;9.278;2023-03-01T02:51:11;0.70;99.90
20345;DHT22;10330;48.816;9.278;2023-03-01T02:54:01;0.70;99.90
20345;DHT22;10330;48.816;9.278;2023-03-01T02:56:31;0.80;99.90
20345;DHT22;10330;48.816;9.278;2023-03-01T02:58:58;0.80;99.90
20345;DHT22;10330;48.816;9.278;2023-03-01T03:01:28;0.80;99.90
20345;DHT22;10330;48.816;9.278;2023-03-01T03:04:11;0.90;99.90
20345;DHT22;10330;48.816;9.278;2023-03-01T03:06:37;0.90;99.90
20345;DHT22;10330;48.816;9.278;2023-03-01T03:09:04;0.90;99.90
20345;DHT22;10330;48.816;9.278;2023-03-01T03:11:31;0.90;99.90
20345;DHT22;10330;48.816;9.278;2023-03-01T03:13:58;0.90;99.90
20345;DHT22;10330;48.816;9.278;2023-03-01T03:16:24;0.90;99.90
20345;DHT22;10330;48.816;9.278;2023-03-01T03:18:51;0.90;99.90
20345;DHT22;10330;48.816;9.278;2023-03-01T03:21:17;0.90;99.90
20345;DHT22;10330;48.816;9.278;2023-03-01T03:23:43;0.90;99.90
20345;DHT22;10330;48.816;9.278;2023-03-01T03:26:09;1.00;99.90
20345;DHT22;10330;48.816;9.278;2023-03-01T03:28:39;0.90;99.90
20345;DHT22;10330;48.816;9.278;2023-03-01T03:31:07;1.00;99.90
20345;DHT22;10330;48.816;9.278;2023-03-01T03:33:33;0.90;99.90
20345;DHT22;10330;48.816;9.278;2023-03-01T03:35:59;0.90;99.90
20345;DHT22;10330;48.816;9.278;2023-03-01T03:38:26;0.90;99.90
20345;DHT22;10330;48.816;9.278;2023-03-01T03:41:02;0.90;99.90
20345;DHT22;10330;48.816;9.278;2023-03-01T03:43:31;0.90;99.90
20345;DHT22;10330;48.816;9.278;2023-03-01T03:45:58;0.80;99.90
20345;DHT22;10330;48.816;9.278;2023-03-01T03:48:24;0.90;99.90
20345;DHT22;10330;48.816;9.278;2023-03-01T03:50:53;0.90;99.90
20345;DHT22;10330;48.816;9.278;2023-03-01T03:53:20;1.00;99.90
20345;DHT22;10330;48.816;9.278;2023-03-01T03:55:47;1.00;99.90
20345;DHT22;10330;48.816;9.278;2023-03-01T03:58:15;1.00;99.90
20345;DHT22;10330;48.816;9.278;2023-03-01T04:00:44;1.00;99.90
20345;DHT22;10330;48.816;9.278;2023-03-01T04:03:12;1.00;99.90
20345;DHT22;10330;48.816;9.278;2023-03-01T04:05:39;1.00;99.90
20345;DHT22;10330;48.816;9.278;2023-03-01T04:08:07;1.00;99.90
20345;DHT22;10330;48.816;9.278;2023-03-01T04:10:39;1.00;99.90
20345;DHT22;10330;48.816;9.278;2023-03-01T04:13:07;1.00;99.90
20345;DHT22;10330;48.816;9.278;2023-03-01T04:15:35;1.00;99.90
20345;DHT22;10330;48.816;9.278;2023-03-01T04:18:01;1.00;99.90
20345;DHT22;10330;48.816;9.278;2023-03-01T04:20:31;1.10;99.90
20345;DHT22;10330;48.816;9.278;2023-03-01T04:23:04;1.00;99.90
20345;DHT22;10330;48.816;9.278;2023-03-01T04:25:40;1.00;99.90
20345;DHT22;10330;48.816;9.278;2023-03-01T04:28:08;1.00;99.90
20345;DHT22;10330;48.816;9.278;2023-03-01T04:30:35;1.00;99.90
20345;DHT22;10330;48.816;9.278;2023-03-01T04:33:06;1.00;99.90
20345;DHT22;10330;48.816;9.278;2023-03-01T04:35:33;1.00;99.90
20345;DHT22;10330;48.816;9.278;2023-03-01T04:38:00;1.10;99.90
20345;DHT22;10330;48.816;9.278;2023-03-01T04:40:26;1.20;99.90
20345;DHT22;10330;48.816;9.278;2023-03-01T04:42:52;1.10;99.90
20345;DHT22;10330;48.816;9.278;2023-03-01T04:45:19;1.10;99.90
20345;DHT22;10330;48.816;9.278;2023-03-01T04:47:46;1.10;99.90
20345;DHT22;10330;48.816;9.278;2023-03-01T04:50:15;1.10;99.90
20345;DHT22;10330;48.816;9.278;2023-03-01T04:52:41;1.10;99.90
20345;DHT22;10330;48.816;9.278;2023-03-01T04:55:08;1.10;99.90
20345;DHT22;10330;48.816;9.278;2023-03-01T04:57:35;1.10;99.90
20345;DHT22;10330;48.816;9.278;2023-03-01T05:00:03;1.10;99.90
20345;DHT22;10330;48.816;9.278;2023-03-01T05:02:53;1.10;99.90
20345;DHT22;10330;48.816;9.278;2023-03-01T05:07:47;1.10;99.90
20345;DHT22;10330;48.816;9.278;2023-03-01T05:10:13;1.10;99.90
20345;DHT22;10330;48.816;9.278;2023-03-01T05:12:40;1.10;99.90
20345;DHT22;10330;48.816;9.278;2023-03-01T05:15:07;1.00;99.90
20345;DHT22;10330;48.816;9.278;2023-03-01T05:17:33;1.10;99.90
20345;DHT22;10330;48.816;9.278;2023-03-01T05:20:00;1.00;99.90
20345;DHT22;10330;48.816;9.278;2023-03-01T05:22:27;1.00;99.90
20345;DHT22;10330;48.816;9.278;2023-03-01T05:24:53;1.00;99.90
20345;DHT22;10330;48.816;9.278;2023-03-01T05:27:20;1.00;99.90
20345;DHT22;10330;48.816;9.278;2023-03-01T05:29:48;0.90;99.90
20345;DHT22;10330;48.816;9.278;2023-03-01T05:32:14;0.90;99.90
20345;DHT22;10330;48.816;9.278;2023-03-01T05:34:42;0.90;99.90
20345;DHT22;10330;48.816;9.278;2023-03-01T05:37:08;0.90;99.90
20345;DHT22;10330;48.816;9.278;2023-03-01T05:39:38;1.00;99.90
20345;DHT22;10330;48.816;9.278;2023-03-01T05:42:04;1.00;99.90
20345;DHT22;10330;48.816;9.278;2023-03-01T05:44:31;1.00;99.90
20345;DHT22;10330;48.816;9.278;2023-03-01T05:46:57;1.00;99.90
20345;DHT22;10330;48.816;9.278;2023-03-01T05:49:23;1.00;99.90
20345;DHT22;10330;48.816;9.278;2023-03-01T05:51:52;1.00;99.90
20345;DHT22;10330;48.816;9.278;2023-03-01T05:54:20;1.00;99.90
20345;DHT22;10330;48.816;9.278;2023-03-01T05:56:46;1.00;99.90
20345;DHT22;10330;48.816;9.278;2023-03-01T05:59:13;1.00;99.90
20345;DHT22;10330;48.816;9.278;2023-03-01T06:01:40;1.00;99.90
20345;DHT22;10330;48.816;9.278;2023-03-01T06:04:07;1.00;99.90
20345;DHT22;10330;48.816;9.278;2023-03-01T06:06:35;1.00;99.90
20345;DHT22;10330;48.816;9.278;2023-03-01T06:09:04;1.00;99.90
20345;DHT22;10330;48.816;9.278;2023-03-01T06:11:30;1.10;99.90
20345;DHT22;10330;48.816;9.278;2023-03-01T06:13:57;1.00;99.90
20345;DHT22;10330;48.816;9.278;2023-03-01T06:16:23;0.90;99.90
20345;DHT22;10330;48.816;9.278;2023-03-01T06:18:50;0.90;99.90
20345;DHT22;10330;48.816;9.278;2023-03-01T06:21:16;0.80;99.90
20345;DHT22;10330;48.816;9.278;2023-03-01T06:23:42;0.90;99.90
20345;DHT22;10330;48.816;9.278;2023-03-01T06:26:08;0.90;99.90
20345;DHT22;10330;48.816;9.278;2023-03-01T06:28:35;0.80;99.90
20345;DHT22;10330;48.816;9.278;2023-03-01T06:31:02;0.80;99.90
20345;DHT22;10330;48.816;9.278;2023-03-01T06:33:28;0.80;99.90
20345;DHT22;10330;48.816;9.278;2023-03-01T06:35:55;0.80;99.90
20345;DHT22;10330;48.816;9.278;2023-03-01T06:38:23;0.90;99.90
20345;DHT22;10330;48.816;9.278;2023-03-01T06:40:53;0.80;99.90
20345;DHT22;10330;48.816;9.278;2023-03-01T06:43:21;0.80;99.90
20345;DHT22;10330;48.816;9.278;2023-03-01T06:45:47;0.80;99.90
20345;DHT22;10330;48.816;9.278;2023-03-01T06:48:13;0.90;99.90
20345;DHT22;10330;48.816;9.278;2023-03-01T06:50:39;0.90;99.90
20345;DHT22;10330;48.816;9.278;2023-03-01T06:53:07;0.90;99.90
20345;DHT22;10330;48.816;9.278;2023-03-01T06:55:33;0.90;99.90
20345;DHT22;10330;48.816;9.278;2023-03-01T06:58:00;0.90;99.90
20345;DHT22;10330;48.816;9.278;2023-03-01T07:00:27;1.00;99.90
20345;DHT22;10330;48.816;9.278;2023-03-01T07:02:53;1.00;99.90
20345;DHT22;10330;48.816;9.278;2023-03-01T07:05:20;0.80;99.90
20345;DHT22;10330;48.816;9.278;2023-03-01T07:07:46;0.80;99.90
20345;DHT22;10330;48.816;9.278;2023-03-01T07:10:12;0.80;99.90
20345;DHT22;10330;48.816;9.278;2023-03-01T07:12:39;0.80;99.90
20345;DHT22;10330;48.816;9.278;2023-03-01T07:15:05;0.80;99.90
20345;DHT22;10330;48.816;9.278;2023-03-01T07:17:31;0.80;99.90
20345;DHT22;10330;48.816;9.278;2023-03-01T07:19:58;0.80;99.90
20345;DHT22;10330;48.816;9.278;2023-03-01T07:22:24;0.80;99.90
20345;DHT22;10330;48.816;9.278;2023-03-01T07:24:50;0.80;99.90
20345;DHT22;10330;48.816;9.278;2023-03-01T07:27:16;0.80;99.90
20345;DHT22;10330;48.816;9.278;2023-03-01T07:29:42;0.80;99.90
20345;DHT22;10330;48.816;9.278;2023-03-01T07:32:09;0.80;99.90
20345;DHT22;10330;48.816;9.278;2023-03-01T07:34:35;0.80;99.90
20345;DHT22;10330;48.816;9.278;2023-03-01T07:37:02;0.90;99.90
20345;DHT22;10330;48.816;9.278;2023-03-01T07:39:28;0.90;99.90
20345;DHT22;10330;48.816;9.278;2023-03-01T07:41:54;1.00;99.90
20345;DHT22;10330;48.816;9.278;2023-03-01T07:44:22;1.10;99.90
20345;DHT22;10330;48.816;9.278;2023-03-01T07:46:48;1.80;99.90
20345;DHT22;10330;48.816;9.278;2023-03-01T07:49:14;2.00;99.90
20345;DHT22;10330;48.816;9.278;2023-03-01T07:51:40;1.90;99.90
20345;DHT22;10330;48.816;9.278;2023-03-01T07:54:07;1.80;99.90
20345;DHT22;10330;48.816;9.278;2023-03-01T07:56:34;1.70;99.90
20345;DHT22;10330;48.816;9.278;2023-03-01T07:59:00;1.60;99.90
20345;DHT22;10330;48.816;9.278;2023-03-01T08:01:26;1.60;99.90
20345;DHT22;10330;48.816;9.278;2023-03-01T08:03:52;1.60;99.90
20345;DHT22;10330;48.816;9.278;2023-03-01T08:06:18;1.60;99.90
20345;DHT22;10330;48.816;9.278;2023-03-01T08:08:45;1.60;99.90
20345;DHT22;10330;48.816;9.278;2023-03-01T08:11:13;1.60;99.90
20345;DHT22;10330;48.816;9.278;2023-03-01T08:13:39;1.70;99.90
20345;DHT22;10330;48.816;9.278;2023-03-01T08:16:09;1.70;99.90
20345;DHT22;10330;48.816;9.278;2023-03-01T08:18:37;1.60;99.90
20345;DHT22;10330;48.816;9.278;2023-03-01T08:21:15;1.70;99.90
20345;DHT22;10330;48.816;9.278;2023-03-01T08:23:41;1.70;99.90
20345;DHT22;10330;48.816;9.278;2023-03-01T08:26:19;1.70;99.90
20345;DHT22;10330;48.816;9.278;2023-03-01T08:28:46;1.80;99.90
20345;DHT22;10330;48.816;9.278;2023-03-01T08:33:48;1.90;99.90
20345;DHT22;10330;48.816;9.278;2023-03-01T08:36:18;1.90;99.90
20345;DHT22;10330;48.816;9.278;2023-03-01T08:38:44;2.00;99.90
20345;DHT22;10330;48.816;9.278;2023-03-01T08:41:11;2.00;99.90
20345;DHT22;10330;48.816;9.278;2023-03-01T08:43:38;2.10;99.90
20345;DHT22;10330;48.816;9.278;2023-03-01T08:46:04;2.10;99.90
20345;DHT22;10330;48.816;9.278;2023-03-01T08:48:30;2.30;99.90
20345;DHT22;10330;48.816;9.278;2023-03-01T08:50:56;2.30;99.90
20345;DHT22;10330;48.816;9.278;2023-03-01T08:53:23;2.20;99.90
20345;DHT22;10330;48.816;9.278;2023-03-01T08:55:49;2.30;99.90
20345;DHT22;10330;48.816;9.278;2023-03-01T08:58:15;2.30;99.90
20345;DHT22;10330;48.816;9.278;2023-03-01T09:00:41;2.40;99.90
20345;DHT22;10330;48.816;9.278;2023-03-01T09:03:07;2.40;99.90
20345;DHT22;10330;48.816;9.278;2023-03-01T09:05:33;2.50;99.90
20345;DHT22;10330;48.816;9.278;2023-03-01T09:08:00;2.50;99.90
20345;DHT22;10330;48.816;9.278;2023-03-01T09:10:26;2.50;99.90
20345;DHT22;10330;48.816;9.278;2023-03-01T09:12:52;2.60;99.90
20345;DHT22;10330;48.816;9.278;2023-03-01T09:15:19;2.70;99.90
20345;DHT22;10330;48.816;9.278;2023-03-01T09:17:45;2.80;99.90
20345;DHT22;10330;48.816;9.278;2023-03-01T09:20:11;2.90;99.90
20345;DHT22;10330;48.816;9.278;2023-03-01T09:22:37;3.00;99.90
20345;DHT22;10330;48.816;9.278;2023-03-01T09:25:04;3.10;99.90
20345;DHT22;10330;48.816;9.278;2023-03-01T09:27:30;3.10;99.90
20345;DHT22;10330;48.816;9.278;2023-03-01T09:29:56;3.30;99.90
20345;DHT22;10330;48.816;9.278;2023-03-01T09:32:22;3.60;99.90
20345;DHT22;10330;48.816;9.278;2023-03-01T09:34:49;4.00;99.90
20345;DHT22;10330;48.816;9.278;2023-03-01T09:37:29;4.50;99.90
20345;DHT22;10330;48.816;9.278;2023-03-01T09:39:55;4.40;99.90
20345;DHT22;10330;48.816;9.278;2023-03-01T09:42:22;4.40;99.90
20345;DHT22;10330;48.816;9.278;2023-03-01T09:45:02;4.30;99.90
20345;DHT22;10330;48.816;9.278;2023-03-01T09:47:31;4.30;99.90
20345;DHT22;10330;48.816;9.278;2023-03-01T09:50:13;4.30;99.90
20345;DHT22;10330;48.816;9.278;2023-03-01T09:52:59;4.30;99.90
20345;DHT22;10330;48.816;9.278;2023-03-01T09:55:31;4.30;99.90
20345;DHT22;10330;48.816;9.278;2023-03-01T10:01:01;4.50;99.90
20345;DHT22;10330;48.816;9.278;2023-03-01T10:06:33;4.60;99.90
20345;DHT22;10330;48.816;9.278;2023-03-01T10:09:12;4.50;99.90
20345;DHT22;10330;48.816;9.278;2023-03-01T10:11:47;4.60;99.90
20345;DHT22;10330;48.816;9.278;2023-03-01T10:14:51;4.60;99.90
20345;DHT22;10330;48.816;9.278;2023-03-01T10:20:28;4.60;99.90
20345;DHT22;10330;48.816;9.278;2023-03-01T10:22:55;4.70;99.90
20345;DHT22;10330;48.816;9.278;2023-03-01T10:25:47;4.70;99.90
20345;DHT22;10330;48.816;9.278;2023-03-01T10:30:54;4.80;99.90
20345;DHT22;10330;48.816;9.278;2023-03-01T10:33:37;5.00;99.90
20345;DHT22;10330;48.816;9.278;2023-03-01T10:36:05;5.00;99.90
20345;DHT22;10330;48.816;9.278;2023-03-01T10:38:50;5.10;99.90
20345;DHT22;10330;48.816;9.278;2023-03-01T10:41:18;5.20;99.90
20345;DHT22;10330;48.816;9.278;2023-03-01T10:43:47;5.30;99.90
20345;DHT22;10330;48.816;9.278;2023-03-01T10:49:23;5.70;99.90
20345;DHT22;10330;48.816;9.278;2023-03-01T10:51:53;5.90;99.90
20345;DHT22;10330;48.816;9.278;2023-03-01T10:54:28;6.30;99.90
20345;DHT22;10330;48.816;9.278;2023-03-01T10:56:58;6.30;99.90
20345;DHT22;10330;48.816;9.278;2023-03-01T10:59:36;6.50;99.90
20345;DHT22;10330;48.816;9.278;2023-03-01T11:05:13;6.70;99.90
20345;DHT22;10330;48.816;9.278;2023-03-01T11:07:54;7.10;99.90
20345;DHT22;10330;48.816;9.278;2023-03-01T11:10:26;7.30;99.90
20345;DHT22;10330;48.816;9.278;2023-03-01T11:12:53;7.60;99.90
20345;DHT22;10330;48.816;9.278;2023-03-01T11:15:26;7.90;99.90
20345;DHT22;10330;48.816;9.278;2023-03-01T11:17:56;8.30;99.90
20345;DHT22;10330;48.816;9.278;2023-03-01T11:20:33;8.60;99.90
20345;DHT22;10330;48.816;9.278;2023-03-01T11:23:14;9.00;99.90
20345;DHT22;10330;48.816;9.278;2023-03-01T11:25:48;9.50;99.90
20345;DHT22;10330;48.816;9.278;2023-03-01T11:28:17;9.80;99.90
20345;DHT22;10330;48.816;9.278;2023-03-01T11:31:09;10.20;99.90
20345;DHT22;10330;48.816;9.278;2023-03-01T11:33:59;10.50;99.90
20345;DHT22;10330;48.816;9.278;2023-03-01T11:42:18;11.60;99.90
20345;DHT22;10330;48.816;9.278;2023-03-01T11:44:48;11.80;99.90
20345;DHT22;10330;48.816;9.278;2023-03-01T11:50:44;11.90;99.90
20345;DHT22;10330;48.816;9.278;2023-03-01T11:56:05;12.50;99.90
20345;DHT22;10330;48.816;9.278;2023-03-01T12:01:51;13.10;99.90
20345;DHT22;10330;48.816;9.278;2023-03-01T12:10:26;13.10;99.90
20345;DHT22;10330;48.816;9.278;2023-03-01T12:13:10;13.40;99.90
20345;DHT22;10330;48.816;9.278;2023-03-01T12:21:26;13.90;99.90
20345;DHT22;10330;48.816;9.278;2023-03-01T12:29:42;14.70;98.10
20345;DHT22;10330;48.816;9.278;2023-03-01T12:35:11;15.00;97.50
20345;DHT22;10330;48.816;9.278;2023-03-01T12:38:19;15.40;97.40
20345;DHT22;10330;48.816;9.278;2023-03-01T12:43:51;15.60;96.30
20345;DHT22;10330;48.816;9.278;2023-03-01T12:46:35;15.70;95.90
20345;DHT22;10330;48.816;9.278;2023-03-01T12:49:18;16.20;96.40
20345;DHT22;10330;48.816;9.278;2023-03-01T12:51:56;16.40;94.20
20345;DHT22;10330;48.816;9.278;2023-03-01T12:54:29;16.10;92.40
20345;DHT22;10330;48.816;9.278;2023-03-01T12:57:02;16.00;93.10
20345;DHT22;10330;48.816;9.278;2023-03-01T12:59:57;16.10;93.30
20345;DHT22;10330;48.816;9.278;2023-03-01T13:02:52;16.30;93.10
20345;DHT22;10330;48.816;9.278;2023-03-01T13:08:35;16.10;92.20
20345;DHT22;10330;48.816;9.278;2023-03-01T13:10:52;16.30;93.30
20345;DHT22;10330;48.816;9.278;2023-03-01T13:13:23;16.50;93.10
20345;DHT22;10330;48.816;9.278;2023-03-01T13:15:51;16.70;92.20
20345;DHT22;10330;48.816;9.278;2023-03-01T13:20:52;17.10;90.80
20345;DHT22;10330;48.816;9.278;2023-03-01T13:28:56;16.90;90.90
20345;DHT22;10330;48.816;9.278;2023-03-01T13:33:59;16.70;90.10
20345;DHT22;10330;48.816;9.278;2023-03-01T13:38:56;16.60;90.30
20345;DHT22;10330;48.816;9.278;2023-03-01T13:46:46;16.30;91.30
20345;DHT22;10330;48.816;9.278;2023-03-01T13:49:25;16.10;90.60
20345;DHT22;10330;48.816;9.278;2023-03-01T13:51:52;15.90;90.80
20345;DHT22;10330;48.816;9.278;2023-03-01T13:54:29;16.00;91.50
20345;DHT22;10330;48.816;9.278;2023-03-01T13:56:59;16.00;91.40
20345;DHT22;10330;48.816;9.278;2023-03-01T13:59:26;15.70;91.30
20345;DHT22;10330;48.816;9.278;2023-03-01T14:02:02;15.70;91.60
20345;DHT22;10330;48.816;9.278;2023-03-01T14:04:30;15.60;91.30
20345;DHT22;10330;48.816;9.278;2023-03-01T14:09:46;15.50;91.90
20345;DHT22;10330;48.816;9.278;2023-03-01T14:15:15;15.10;91.70
20345;DHT22;10330;48.816;9.278;2023-03-01T14:20:23;15.20;92.60
20345;DHT22;10330;48.816;9.278;2023-03-01T14:22:53;15.10;92.80
20345;DHT22;10330;48.816;9.278;2023-03-01T14:25:29;15.00;92.60
20345;DHT22;10330;48.816;9.278;2023-03-01T14:28:03;15.30;92.70
20345;DHT22;10330;48.816;9.278;2023-03-01T14:30:58;15.40;92.80
20345;DHT22;10330;48.816;9.278;2023-03-01T14:33:28;15.10;92.20
20345;DHT22;10330;48.816;9.278;2023-03-01T14:38:35;15.00;91.70
20345;DHT22;10330;48.816;9.278;2023-03-01T14:41:23;15.00;91.90
20345;DHT22;10330;48.816;9.278;2023-03-01T14:46:33;15.00;92.60
20345;DHT22;10330;48.816;9.278;2023-03-01T14:49:11;14.90;92.20
20345;DHT22;10330;48.816;9.278;2023-03-01T14:51:40;14.70;91.80
20345;DHT22;10330;48.816;9.278;2023-03-01T14:54:31;14.60;92.30
20345;DHT22;10330;48.816;9.278;2023-03-01T14:57:02;14.40;92.70
20345;DHT22;10330;48.816;9.278;2023-03-01T14:59:28;14.30;92.90
20345;DHT22;10330;48.816;9.278;2023-03-01T15:01:58;14.10;93.10
20345;DHT22;10330;48.816;9.278;2023-03-01T15:04:26;13.90;92.90
20345;DHT22;10330;48.816;9.278;2023-03-01T15:06:54;13.70;93.60
20345;DHT22;10330;48.816;9.278;2023-03-01T15:09:22;13.70;94.00
20345;DHT22;10330;48.816;9.278;2023-03-01T15:11:48;13.70;94.10
20345;DHT22;10330;48.816;9.278;2023-03-01T15:14:40;13.70;94.30
20345;DHT22;10330;48.816;9.278;2023-03-01T15:17:33;13.40;93.70
20345;DHT22;10330;48.816;9.278;2023-03-01T15:20:02;13.30;94.20
20345;DHT22;10330;48.816;9.278;2023-03-01T15:22:30;13.30;93.90
20345;DHT22;10330;48.816;9.278;2023-03-01T15:24:56;13.20;94.10
20345;DHT22;10330;48.816;9.278;2023-03-01T15:27:25;13.10;94.00
20345;DHT22;10330;48.816;9.278;2023-03-01T15:30:00;12.70;94.40
20345;DHT22;10330;48.816;9.278;2023-03-01T15:32:29;12.50;94.80
20345;DHT22;10330;48.816;9.278;2023-03-01T15:34:57;12.50;95.00
20345;DHT22;10330;48.816;9.278;2023-03-01T15:37:47;12.40;95.40
20345;DHT22;10330;48.816;9.278;2023-03-01T15:40:28;12.20;95.40
20345;DHT22;10330;48.816;9.278;2023-03-01T15:42:58;12.10;95.60
20345;DHT22;10330;48.816;9.278;2023-03-01T15:45:27;12.00;95.60
20345;DHT22;10330;48.816;9.278;2023-03-01T15:47:57;11.90;95.80
20345;DHT22;10330;48.816;9.278;2023-03-01T15:50:33;11.70;95.90
20345;DHT22;10330;48.816;9.278;2023-03-01T15:53:00;11.50;96.40
20345;DHT22;10330;48.816;9.278;2023-03-01T15:55:29;11.10;96.50
20345;DHT22;10330;48.816;9.278;2023-03-01T16:00:28;10.60;98.00
20345;DHT22;10330;48.816;9.278;2023-03-01T16:02:55;10.50;98.50
20345;DHT22;10330;48.816;9.278;2023-03-01T16:05:24;10.20;99.60
20345;DHT22;10330;48.816;9.278;2023-03-01T16:07:51;10.00;99.80
20345;DHT22;10330;48.816;9.278;2023-03-01T16:10:18;9.80;99.90
20345;DHT22;10330;48.816;9.278;2023-03-01T16:12:45;9.70;99.90
20345;DHT22;10330;48.816;9.278;2023-03-01T16:17:50;9.20;99.90
20345;DHT22;10330;48.816;9.278;2023-03-01T16:20:22;9.30;99.90
20345;DHT22;10330;48.816;9.278;2023-03-01T16:22:48;9.20;99.90
20345;DHT22;10330;48.816;9.278;2023-03-01T16:25:17;9.00;99.90
20345;DHT22;10330;48.816;9.278;2023-03-01T16:27:48;8.90;99.90
20345;DHT22;10330;48.816;9.278;2023-03-01T16:30:17;8.80;99.90
20345;DHT22;10330;48.816;9.278;2023-03-01T16:32:45;8.70;99.90
20345;DHT22;10330;48.816;9.278;2023-03-01T16:35:13;8.70;99.90
20345;DHT22;10330;48.816;9.278;2023-03-01T16:37:40;8.70;99.90
20345;DHT22;10330;48.816;9.278;2023-03-01T16:40:19;8.50;99.90
20345;DHT22;10330;48.816;9.278;2023-03-01T16:42:48;8.50;99.90
20345;DHT22;10330;48.816;9.278;2023-03-01T16:45:14;8.40;99.90
20345;DHT22;10330;48.816;9.278;2023-03-01T16:47:40;8.30;99.90
20345;DHT22;10330;48.816;9.278;2023-03-01T16:50:07;8.20;99.90
20345;DHT22;10330;48.816;9.278;2023-03-01T16:52:34;8.10;99.90
20345;DHT22;10330;48.816;9.278;2023-03-01T16:55:00;8.10;99.90
20345;DHT22;10330;48.816;9.278;2023-03-01T16:57:26;8.00;99.90
20345;DHT22;10330;48.816;9.278;2023-03-01T16:59:52;7.90;99.90
20345;DHT22;10330;48.816;9.278;2023-03-01T17:02:21;7.80;99.90
20345;DHT22;10330;48.816;9.278;2023-03-01T17:04:54;7.70;99.90
20345;DHT22;10330;48.816;9.278;2023-03-01T17:07:21;7.50;99.90
20345;DHT22;10330;48.816;9.278;2023-03-01T17:09:48;7.50;99.90
20345;DHT22;10330;48.816;9.278;2023-03-01T17:12:15;7.50;99.90
20345;DHT22;10330;48.816;9.278;2023-03-01T17:14:41;7.40;99.90
20345;DHT22;10330;48.816;9.278;2023-03-01T17:17:09;7.40;99.90
20345;DHT22;10330;48.816;9.278;2023-03-01T17:19:35;7.30;99.90
20345;DHT22;10330;48.816;9.278;2023-03-01T17:22:09;7.20;99.90
20345;DHT22;10330;48.816;9.278;2023-03-01T17:24:38;7.10;99.90
20345;DHT22;10330;48.816;9.278;2023-03-01T17:27:05;7.10;99.90
20345;DHT22;10330;48.816;9.278;2023-03-01T17:29:31;7.00;99.90
20345;DHT22;10330;48.816;9.278;2023-03-01T17:31:58;7.00;99.90
20345;DHT22;10330;48.816;9.278;2023-03-01T17:34:25;6.90;99.90
20345;DHT22;10330;48.816;9.278;2023-03-01T17:36:52;6.80;99.90
20345;DHT22;10330;48.816;9.278;2023-03-01T17:39:18;6.80;99.90
20345;DHT22;10330;48.816;9.278;2023-03-01T17:41:51;6.70;99.90
20345;DHT22;10330;48.816;9.278;2023-03-01T17:44:18;6.60;99.90
20345;DHT22;10330;48.816;9.278;2023-03-01T17:46:45;6.60;99.90
20345;DHT22;10330;48.816;9.278;2023-03-01T17:49:12;6.50;99.90
20345;DHT22;10330;48.816;9.278;2023-03-01T17:51:38;6.50;99.90
20345;DHT22;10330;48.816;9.278;2023-03-01T17:54:04;6.40;99.90
20345;DHT22;10330;48.816;9.278;2023-03-01T17:56:31;6.40;99.90